sensor_id;sensor_type;location;lat;lon;timestamp;pressure;altitude;pressure_sealevel;temperature;humidity
60337;BME280;46978;50.288;28.624;2023-04-25T00:00:38;98325.21;;;8.25;78.17
60337;BME280;46978;50.288;28.624;2023-04-25T00:01:40;98325.17;;;8.26;77.84
60337;BME280;46978;50.288;28.624;2023-04-25T00:02:42;98320.00;;;8.26;77.97
60337;BME280;46978;50.288;28.624;2023-04-25T00:03:43;98328.59;;;8.27;78.13
60337;BME280;46978;50.288;28.624;2023-04-25T00:04:45;98328.59;;;8.27;77.91
60337;BME280;46978;50.288;28.624;2023-04-25T00:05:47;98323.42;;;8.27;77.85
60337;BME280;46978;50.288;28.624;2023-04-25T00:06:48;98323.42;;;8.27;77.92
60337;BME280;46978;50.288;28.624;2023-04-25T00:07:51;98329.47;;;8.28;77.85
60337;BME280;46978;50.288;28.624;2023-04-25T00:08:53;98326.05;;;8.25;77.86
60337;BME280;46978;50.288;28.624;2023-04-25T00:10:00;98325.21;;;8.25;77.27
60337;BME280;46978;50.288;28.624;2023-04-25T00:11:02;98322.67;;;8.23;77.95
60337;BME280;46978;50.288;28.624;2023-04-25T00:12:04;98324.41;;;8.23;78.16
60337;BME280;46978;50.288;28.624;2023-04-25T00:13:05;98325.33;;;8.20;78.12
60337;BME280;46978;50.288;28.624;2023-04-25T00:14:07;98328.75;;;8.21;77.91
60337;BME280;46978;50.288;28.624;2023-04-25T00:15:09;98325.37;;;8.19;78.24
60337;BME280;46978;50.288;28.624;2023-04-25T00:16:12;98321.08;;;8.18;78.29
60337;BME280;46978;50.288;28.624;2023-04-25T00:17:13;98318.49;;;8.18;78.17
60337;BME280;46978;50.288;28.624;2023-04-25T00:18:15;98322.02;;;8.15;78.41
60337;BME280;46978;50.288;28.624;2023-04-25T00:19:17;98319.48;;;8.14;78.85
60337;BME280;46978;50.288;28.624;2023-04-25T00:20:19;98318.56;;;8.15;78.81
60337;BME280;46978;50.288;28.624;2023-04-25T00:21:21;98310.06;;;8.11;78.95
60337;BME280;46978;50.288;28.624;2023-04-25T00:22:22;98316.86;;;8.15;78.84
60337;BME280;46978;50.288;28.624;2023-04-25T00:23:24;98310.02;;;8.13;78.69
60337;BME280;46978;50.288;28.624;2023-04-25T00:24:27;98312.68;;;8.10;78.66
60337;BME280;46978;50.288;28.624;2023-04-25T00:25:29;98310.97;;;8.08;78.86
60337;BME280;46978;50.288;28.624;2023-04-25T00:26:31;98311.05;;;8.05;79.03
60337;BME280;46978;50.288;28.624;2023-04-25T00:27:33;98306.79;;;8.04;79.24
60337;BME280;46978;50.288;28.624;2023-04-25T00:28:34;98311.99;;;8.03;79.32
60337;BME280;46978;50.288;28.624;2023-04-25T00:29:36;98308.58;;;8.01;78.96
60337;BME280;46978;50.288;28.624;2023-04-25T00:30:39;98308.61;;;7.99;79.55
60337;BME280;46978;50.288;28.624;2023-04-25T00:31:41;98310.40;;;7.97;79.36
60337;BME280;46978;50.288;28.624;2023-04-25T00:32:43;98306.14;;;7.95;79.56
60337;BME280;46978;50.288;28.624;2023-04-25T00:33:44;98306.19;;;7.93;80.03
60337;BME280;46978;50.288;28.624;2023-04-25T00:34:47;98302.77;;;7.93;80.21
60337;BME280;46978;50.288;28.624;2023-04-25T00:35:49;98299.38;;;7.90;80.02
60337;BME280;46978;50.288;28.624;2023-04-25T00:36:51;98301.16;;;7.88;80.19
60337;BME280;46978;50.288;28.624;2023-04-25T00:37:54;98296.83;;;7.89;80.59
60337;BME280;46978;50.288;28.624;2023-04-25T00:38:55;98295.09;;;7.89;80.22
60337;BME280;46978;50.288;28.624;2023-04-25T00:39:58;98302.00;;;7.89;80.51
60337;BME280;46978;50.288;28.624;2023-04-25T00:41:00;98303.78;;;7.87;80.25
60337;BME280;46978;50.288;28.624;2023-04-25T00:42:02;98296.03;;;7.87;80.54
60337;BME280;46978;50.288;28.624;2023-04-25T00:43:04;98296.03;;;7.87;80.72
60337;BME280;46978;50.288;28.624;2023-04-25T00:44:08;98296.94;;;7.84;80.20
60337;BME280;46978;50.288;28.624;2023-04-25T00:45:12;98296.91;;;7.86;80.74
60337;BME280;46978;50.288;28.624;2023-04-25T00:46:15;98287.48;;;7.83;80.62
60337;BME280;46978;50.288;28.624;2023-04-25T00:47:17;98288.44;;;7.81;81.00
60337;BME280;46978;50.288;28.624;2023-04-25T00:48:21;98289.31;;;7.80;81.07
60337;BME280;46978;50.288;28.624;2023-04-25T00:49:23;98289.31;;;7.80;80.84
60337;BME280;46978;50.288;28.624;2023-04-25T00:50:25;98292.73;;;7.80;80.87
60337;BME280;46978;50.288;28.624;2023-04-25T00:51:27;98289.34;;;7.78;81.35
60337;BME280;46978;50.288;28.624;2023-04-25T00:52:28;98285.92;;;7.78;81.15
60337;BME280;46978;50.288;28.624;2023-04-25T00:53:30;98287.67;;;7.76;80.96
60337;BME280;46978;50.288;28.624;2023-04-25T00:54:32;98287.71;;;7.74;81.33
60337;BME280;46978;50.288;28.624;2023-04-25T00:55:34;98294.59;;;7.75;81.81
60337;BME280;46978;50.288;28.624;2023-04-25T00:56:38;98286.87;;;7.74;81.72
60337;BME280;46978;50.288;28.624;2023-04-25T00:57:40;98285.13;;;7.74;82.05
60337;BME280;46978;50.288;28.624;2023-04-25T00:58:42;98283.38;;;7.76;81.61
60337;BME280;46978;50.288;28.624;2023-04-25T00:59:45;98292.77;;;7.79;81.80
60337;BME280;46978;50.288;28.624;2023-04-25T01:00:48;98293.63;;;7.79;81.39
60337;BME280;46978;50.288;28.624;2023-04-25T01:01:51;98290.19;;;7.79;81.14
60337;BME280;46978;50.288;28.624;2023-04-25T01:02:52;98290.22;;;7.77;81.67
60337;BME280;46978;50.288;28.624;2023-04-25T01:03:54;98290.25;;;7.76;81.41
60337;BME280;46978;50.288;28.624;2023-04-25T01:04:57;98288.58;;;7.75;81.53
60337;BME280;46978;50.288;28.624;2023-04-25T01:05:59;98290.33;;;7.72;81.50
60337;BME280;46978;50.288;28.624;2023-04-25T01:07:01;98287.78;;;7.71;81.36
60337;BME280;46978;50.288;28.624;2023-04-25T01:08:03;98287.86;;;7.68;81.32
60337;BME280;46978;50.288;28.624;2023-04-25T01:09:05;98276.69;;;7.67;81.85
60337;BME280;46978;50.288;28.624;2023-04-25T01:10:10;98279.31;;;7.66;81.89
60337;BME280;46978;50.288;28.624;2023-04-25T01:11:11;98281.02;;;7.67;82.13
60337;BME280;46978;50.288;28.624;2023-04-25T01:12:13;98284.44;;;7.67;82.07
60337;BME280;46978;50.288;28.624;2023-04-25T01:13:15;98287.05;;;7.66;81.68
60337;BME280;46978;50.288;28.624;2023-04-25T01:14:16;98281.09;;;7.64;82.50
60337;BME280;46978;50.288;28.624;2023-04-25T01:15:18;98277.60;;;7.65;82.27
60337;BME280;46978;50.288;28.624;2023-04-25T01:16:20;98280.15;;;7.66;82.55
60337;BME280;46978;50.288;28.624;2023-04-25T01:17:22;98277.56;;;7.66;82.21
60337;BME280;46978;50.288;28.624;2023-04-25T01:18:23;98280.15;;;7.66;82.33
60337;BME280;46978;50.288;28.624;2023-04-25T01:19:25;98287.89;;;7.66;82.12
60337;BME280;46978;50.288;28.624;2023-04-25T01:20:29;98283.63;;;7.65;82.26
60337;BME280;46978;50.288;28.624;2023-04-25T01:21:35;98281.05;;;7.65;82.74
60337;BME280;46978;50.288;28.624;2023-04-25T01:22:36;98287.09;;;7.64;82.58
60337;BME280;46978;50.288;28.624;2023-04-25T01:23:40;98280.30;;;7.60;82.29
60337;BME280;46978;50.288;28.624;2023-04-25T01:24:42;98287.20;;;7.60;82.37
60337;BME280;46978;50.288;28.624;2023-04-25T01:25:45;98279.53;;;7.57;82.53
60337;BME280;46978;50.288;28.624;2023-04-25T01:26:47;98286.47;;;7.54;82.83
60337;BME280;46978;50.288;28.624;2023-04-25T01:27:50;98274.47;;;7.52;82.96
60337;BME280;46978;50.288;28.624;2023-04-25T01:28:52;98282.22;;;7.52;83.13
60337;BME280;46978;50.288;28.624;2023-04-25T01:29:54;98280.47;;;7.52;83.00
60337;BME280;46978;50.288;28.624;2023-04-25T01:30:57;98280.51;;;7.51;83.53
60337;BME280;46978;50.288;28.624;2023-04-25T01:32:01;98281.41;;;7.50;83.23
60337;BME280;46978;50.288;28.624;2023-04-25T01:33:03;98275.41;;;7.48;83.74
60337;BME280;46978;50.288;28.624;2023-04-25T01:34:04;98275.41;;;7.48;83.74
60337;BME280;46978;50.288;28.624;2023-04-25T01:35:09;98277.16;;;7.47;83.78
60337;BME280;46978;50.288;28.624;2023-04-25T01:37:37;98278.91;;;7.47;83.60
60337;BME280;46978;50.288;28.624;2023-04-25T01:38:40;98275.52;;;7.43;83.61
60337;BME280;46978;50.288;28.624;2023-04-25T01:39:42;98275.55;;;7.42;83.56
60337;BME280;46978;50.288;28.624;2023-04-25T01:40:45;98278.17;;;7.40;83.77
60337;BME280;46978;50.288;28.624;2023-04-25T01:41:47;98278.23;;;7.37;83.42
60337;BME280;46978;50.288;28.624;2023-04-25T01:42:50;98274.82;;;7.36;84.24
60337;BME280;46978;50.288;28.624;2023-04-25T01:43:52;98275.70;;;7.35;84.28
60337;BME280;46978;50.288;28.624;2023-04-25T01:44:54;98272.28;;;7.35;84.39
60337;BME280;46978;50.288;28.624;2023-04-25T01:45:56;98314.44;;;7.34;84.05
60337;BME280;46978;50.288;28.624;2023-04-25T01:46:58;98268.89;;;7.33;84.11
60337;BME280;46978;50.288;28.624;2023-04-25T01:48:00;98266.34;;;7.31;84.46
60337;BME280;46978;50.288;28.624;2023-04-25T01:49:01;98268.05;;;7.31;84.46
60337;BME280;46978;50.288;28.624;2023-04-25T01:50:23;98269.80;;;7.30;84.40
60337;BME280;46978;50.288;28.624;2023-04-25T01:51:25;98268.09;;;7.29;84.36
60337;BME280;46978;50.288;28.624;2023-04-25T01:52:27;98267.28;;;7.27;84.49
60337;BME280;46978;50.288;28.624;2023-04-25T01:53:29;98267.28;;;7.27;84.49
60337;BME280;46978;50.288;28.624;2023-04-25T01:54:31;98263.87;;;7.27;84.56
60337;BME280;46978;50.288;28.624;2023-04-25T01:55:33;98267.28;;;7.27;84.94
60337;BME280;46978;50.288;28.624;2023-04-25T01:56:37;98252.68;;;7.26;84.74
60337;BME280;46978;50.288;28.624;2023-04-25T01:57:39;98263.00;;;7.26;84.75
60337;BME280;46978;50.288;28.624;2023-04-25T01:58:42;98263.03;;;7.25;84.98
60337;BME280;46978;50.288;28.624;2023-04-25T01:59:44;98258.78;;;7.24;85.15
60337;BME280;46978;50.288;28.624;2023-04-25T02:00:46;98253.66;;;7.22;85.00
60337;BME280;46978;50.288;28.624;2023-04-25T02:01:51;98258.84;;;7.21;84.96
60337;BME280;46978;50.288;28.624;2023-04-25T02:02:53;98256.30;;;7.19;85.15
60337;BME280;46978;50.288;28.624;2023-04-25T02:03:55;98250.30;;;7.17;85.16
60337;BME280;46978;50.288;28.624;2023-04-25T02:04:57;98236.60;;;7.15;84.93
60337;BME280;46978;50.288;28.624;2023-04-25T02:05:58;98250.41;;;7.12;84.85
60337;BME280;46978;50.288;28.624;2023-04-25T02:07:02;98253.89;;;7.11;85.09
60337;BME280;46978;50.288;28.624;2023-04-25T02:08:08;98254.80;;;7.09;85.16
60337;BME280;46978;50.288;28.624;2023-04-25T02:09:10;98249.64;;;7.09;85.93
60337;BME280;46978;50.288;28.624;2023-04-25T02:10:13;98252.22;;;7.09;85.75
60337;BME280;46978;50.288;28.624;2023-04-25T02:11:15;98253.13;;;7.06;85.79
60337;BME280;46978;50.288;28.624;2023-04-25T02:12:17;98251.41;;;7.07;85.85
60337;BME280;46978;50.288;28.624;2023-04-25T02:13:19;98249.67;;;7.07;85.70
60337;BME280;46978;50.288;28.624;2023-04-25T02:14:20;98252.25;;;7.07;86.09
60337;BME280;46978;50.288;28.624;2023-04-25T02:15:22;98251.41;;;7.07;85.59
60337;BME280;46978;50.288;28.624;2023-04-25T02:16:24;98243.70;;;7.05;85.62
60337;BME280;46978;50.288;28.624;2023-04-25T02:17:26;98244.61;;;7.03;85.51
60337;BME280;46978;50.288;28.624;2023-04-25T02:18:27;98247.23;;;7.01;85.58
60337;BME280;46978;50.288;28.624;2023-04-25T02:19:29;98238.69;;;6.99;85.53
60337;BME280;46978;50.288;28.624;2023-04-25T02:20:31;98243.88;;;6.97;85.76
60337;BME280;46978;50.288;28.624;2023-04-25T02:21:32;98246.48;;;6.96;85.54
60337;BME280;46978;50.288;28.624;2023-04-25T02:22:34;98237.88;;;6.95;85.99
60337;BME280;46978;50.288;28.624;2023-04-25T02:23:36;98243.03;;;6.95;86.35
60337;BME280;46978;50.288;28.624;2023-04-25T02:24:38;98241.36;;;6.94;86.45
60337;BME280;46978;50.288;28.624;2023-04-25T02:25:40;98243.07;;;6.94;86.49
60337;BME280;46978;50.288;28.624;2023-04-25T02:26:42;98248.23;;;6.94;86.29
60337;BME280;46978;50.288;28.624;2023-04-25T02:27:44;98243.97;;;6.93;86.75
60337;BME280;46978;50.288;28.624;2023-04-25T02:28:47;98250.84;;;6.92;86.45
60337;BME280;46978;50.288;28.624;2023-04-25T02:29:48;98237.14;;;6.90;86.22
60337;BME280;46978;50.288;28.624;2023-04-25T02:30:50;98242.36;;;6.87;86.43
60337;BME280;46978;50.288;28.624;2023-04-25T02:31:52;98234.59;;;6.89;86.56
60337;BME280;46978;50.288;28.624;2023-04-25T02:32:53;98241.52;;;6.87;86.58
60337;BME280;46978;50.288;28.624;2023-04-25T02:33:55;98244.06;;;6.88;86.67
60337;BME280;46978;50.288;28.624;2023-04-25T02:34:57;98238.08;;;6.86;86.77
60337;BME280;46978;50.288;28.624;2023-04-25T02:35:58;98238.91;;;6.88;87.26
60337;BME280;46978;50.288;28.624;2023-04-25T02:37:00;98240.63;;;6.88;86.82
60337;BME280;46978;50.288;28.624;2023-04-25T02:38:02;98248.36;;;6.88;86.77
60337;BME280;46978;50.288;28.624;2023-04-25T02:39:04;98245.78;;;6.88;86.82
60337;BME280;46978;50.288;28.624;2023-04-25T02:40:07;98244.10;;;6.87;86.86
60337;BME280;46978;50.288;28.624;2023-04-25T02:41:09;98238.08;;;6.86;86.98
60337;BME280;46978;50.288;28.624;2023-04-25T02:42:10;98240.66;;;6.86;87.35
60337;BME280;46978;50.288;28.624;2023-04-25T02:43:12;98234.63;;;6.87;87.03
60337;BME280;46978;50.288;28.624;2023-04-25T02:44:13;98237.23;;;6.86;86.69
60337;BME280;46978;50.288;28.624;2023-04-25T02:45:15;98240.69;;;6.85;86.87
60337;BME280;46978;50.288;28.624;2023-04-25T02:46:17;98241.55;;;6.85;87.08
60337;BME280;46978;50.288;28.624;2023-04-25T02:47:21;98233.82;;;6.85;86.86
60337;BME280;46978;50.288;28.624;2023-04-25T02:48:23;98240.72;;;6.83;86.87
60337;BME280;46978;50.288;28.624;2023-04-25T02:49:24;98240.72;;;6.83;86.94
60337;BME280;46978;50.288;28.624;2023-04-25T02:50:26;98239.04;;;6.82;86.93
60337;BME280;46978;50.288;28.624;2023-04-25T02:51:28;98236.50;;;6.80;86.79
60337;BME280;46978;50.288;28.624;2023-04-25T02:52:30;98236.50;;;6.80;86.83
60337;BME280;46978;50.288;28.624;2023-04-25T02:53:32;98239.91;;;6.81;87.17
60337;BME280;46978;50.288;28.624;2023-04-25T02:54:33;98247.65;;;6.81;86.85
60337;BME280;46978;50.288;28.624;2023-04-25T02:55:35;98239.11;;;6.79;86.49
60337;BME280;46978;50.288;28.624;2023-04-25T02:56:37;98233.08;;;6.78;86.56
60337;BME280;46978;50.288;28.624;2023-04-25T02:57:39;98242.55;;;6.78;86.83
60337;BME280;46978;50.288;28.624;2023-04-25T02:58:40;98239.17;;;6.76;86.98
60337;BME280;46978;50.288;28.624;2023-04-25T02:59:42;98238.30;;;6.75;86.86
60337;BME280;46978;50.288;28.624;2023-04-25T03:00:44;98231.44;;;6.76;86.70
60337;BME280;46978;50.288;28.624;2023-04-25T03:01:46;98239.20;;;6.74;86.38
60337;BME280;46978;50.288;28.624;2023-04-25T03:02:56;98234.92;;;6.73;86.28
60337;BME280;46978;50.288;28.624;2023-04-25T03:03:58;98246.06;;;6.74;86.74
60337;BME280;46978;50.288;28.624;2023-04-25T03:05:00;98239.20;;;6.74;86.90
60337;BME280;46978;50.288;28.624;2023-04-25T03:06:02;98240.84;;;6.77;87.18
60337;BME280;46978;50.288;28.624;2023-04-25T03:07:03;98232.24;;;6.78;86.79
60337;BME280;46978;50.288;28.624;2023-04-25T03:08:05;98237.37;;;6.79;86.95
60337;BME280;46978;50.288;28.624;2023-04-25T03:09:07;98235.59;;;6.81;86.68
60337;BME280;46978;50.288;28.624;2023-04-25T03:10:10;98245.84;;;6.85;86.95
60337;BME280;46978;50.288;28.624;2023-04-25T03:11:13;98239.78;;;6.87;86.56
60337;BME280;46978;50.288;28.624;2023-04-25T03:12:15;98238.04;;;6.88;86.28
60337;BME280;46978;50.288;28.624;2023-04-25T03:13:17;98243.13;;;6.91;86.19
60337;BME280;46978;50.288;28.624;2023-04-25T03:14:19;98237.08;;;6.93;86.13
60337;BME280;46978;50.288;28.624;2023-04-25T03:15:20;98241.30;;;6.97;86.09
60337;BME280;46978;50.288;28.624;2023-04-25T03:16:23;98236.88;;;7.03;85.95
60337;BME280;46978;50.288;28.624;2023-04-25T03:17:25;98246.19;;;7.10;85.79
60337;BME280;46978;50.288;28.624;2023-04-25T03:18:27;98241.73;;;7.16;85.43
60337;BME280;46978;50.288;28.624;2023-04-25T03:19:29;98233.84;;;7.23;85.14
60337;BME280;46978;50.288;28.624;2023-04-25T03:20:30;98238.06;;;7.27;84.90
60337;BME280;46978;50.288;28.624;2023-04-25T03:21:34;98240.54;;;7.31;84.64
60337;BME280;46978;50.288;28.624;2023-04-25T03:22:37;98237.82;;;7.38;84.44
60337;BME280;46978;50.288;28.624;2023-04-25T03:23:39;98238.30;;;7.53;83.78
60337;BME280;46978;50.288;28.624;2023-04-25T03:24:41;98238.30;;;7.53;83.78
60337;BME280;46978;50.288;28.624;2023-04-25T03:25:42;98237.16;;;7.65;83.35
60337;BME280;46978;50.288;28.624;2023-04-25T03:26:44;98238.61;;;7.76;82.53
60337;BME280;46978;50.288;28.624;2023-04-25T03:27:46;98246.88;;;7.90;82.08
60337;BME280;46978;50.288;28.624;2023-04-25T03:28:48;98237.91;;;8.03;81.51
60337;BME280;46978;50.288;28.624;2023-04-25T03:29:49;98243.59;;;8.16;80.66
60337;BME280;46978;50.288;28.624;2023-04-25T03:30:51;98235.47;;;8.30;80.29
60337;BME280;46978;50.288;28.624;2023-04-25T03:31:53;98238.63;;;8.41;79.45
60337;BME280;46978;50.288;28.624;2023-04-25T03:32:54;98240.91;;;8.54;78.90
60337;BME280;46978;50.288;28.624;2023-04-25T03:33:56;98243.98;;;8.67;78.28
60337;BME280;46978;50.288;28.624;2023-04-25T03:34:57;98241.09;;;8.77;77.79
60337;BME280;46978;50.288;28.624;2023-04-25T03:36:00;98237.27;;;8.91;77.09
60337;BME280;46978;50.288;28.624;2023-04-25T03:37:02;98240.37;;;9.02;76.14
60337;BME280;46978;50.288;28.624;2023-04-25T03:38:04;98240.00;;;9.14;75.58
60337;BME280;46978;50.288;28.624;2023-04-25T03:39:05;98240.42;;;9.29;75.28
60337;BME280;46978;50.288;28.624;2023-04-25T03:40:08;98229.63;;;9.43;74.79
60337;BME280;46978;50.288;28.624;2023-04-25T03:41:10;98240.44;;;9.56;73.57
60337;BME280;46978;50.288;28.624;2023-04-25T03:42:12;98232.37;;;9.65;73.56
60337;BME280;46978;50.288;28.624;2023-04-25T03:43:13;98233.88;;;9.72;72.90
60337;BME280;46978;50.288;28.624;2023-04-25T03:44:15;98236.21;;;9.80;72.14
60337;BME280;46978;50.288;28.624;2023-04-25T03:45:16;98231.61;;;9.88;71.98
60337;BME280;46978;50.288;28.624;2023-04-25T03:46:19;98233.99;;;9.94;71.76
60337;BME280;46978;50.288;28.624;2023-04-25T03:47:20;98235.59;;;9.98;71.46
60337;BME280;46978;50.288;28.624;2023-04-25T03:48:22;98233.79;;;10.00;71.33
60337;BME280;46978;50.288;28.624;2023-04-25T03:49:24;98231.91;;;10.05;71.06
60337;BME280;46978;50.288;28.624;2023-04-25T03:50:26;98231.75;;;10.10;70.64
60337;BME280;46978;50.288;28.624;2023-04-25T03:51:30;98238.34;;;10.19;69.58
60337;BME280;46978;50.288;28.624;2023-04-25T03:52:31;98237.97;;;10.30;69.87
60337;BME280;46978;50.288;28.624;2023-04-25T03:53:33;98230.77;;;10.39;69.13
60337;BME280;46978;50.288;28.624;2023-04-25T03:54:35;98226.47;;;10.62;68.66
60337;BME280;46978;50.288;28.624;2023-04-25T03:55:36;98226.47;;;10.62;68.66
60337;BME280;46978;50.288;28.624;2023-04-25T03:56:38;98224.20;;;10.76;67.94
60337;BME280;46978;50.288;28.624;2023-04-25T03:57:40;98225.50;;;10.88;67.19
60337;BME280;46978;50.288;28.624;2023-04-25T03:58:41;98225.09;;;10.99;66.82
60337;BME280;46978;50.288;28.624;2023-04-25T03:59:43;98232.53;;;11.08;66.33
60337;BME280;46978;50.288;28.624;2023-04-25T04:00:45;98228.62;;;11.20;66.08
60337;BME280;46978;50.288;28.624;2023-04-25T04:01:47;98227.28;;;11.32;65.10
60337;BME280;46978;50.288;28.624;2023-04-25T04:02:49;98223.48;;;11.41;64.95
60337;BME280;46978;50.288;28.624;2023-04-25T04:03:50;98228.13;;;11.55;64.90
60337;BME280;46978;50.288;28.624;2023-04-25T04:04:52;98229.33;;;11.68;64.13
60337;BME280;46978;50.288;28.624;2023-04-25T04:05:54;98233.22;;;11.78;63.45
60337;BME280;46978;50.288;28.624;2023-04-25T04:06:55;98225.05;;;11.88;62.97
60337;BME280;46978;50.288;28.624;2023-04-25T04:07:57;98228.99;;;11.98;62.58
60337;BME280;46978;50.288;28.624;2023-04-25T04:08:59;98227.03;;;12.03;61.46
60337;BME280;46978;50.288;28.624;2023-04-25T04:10:00;98225.01;;;12.10;61.15
60337;BME280;46978;50.288;28.624;2023-04-25T04:11:22;98229.88;;;12.17;61.48
60337;BME280;46978;50.288;28.624;2023-04-25T04:12:24;98225.28;;;12.24;60.90
60337;BME280;46978;50.288;28.624;2023-04-25T04:13:26;98225.84;;;12.31;60.20
60337;BME280;46978;50.288;28.624;2023-04-25T04:14:28;98224.75;;;12.36;60.27
60337;BME280;46978;50.288;28.624;2023-04-25T04:15:30;98223.55;;;12.44;60.17
60337;BME280;46978;50.288;28.624;2023-04-25T04:16:32;98217.10;;;12.52;59.86
60337;BME280;46978;50.288;28.624;2023-04-25T04:17:34;98222.80;;;12.61;59.57
60337;BME280;46978;50.288;28.624;2023-04-25T04:18:35;98225.20;;;12.65;59.09
60337;BME280;46978;50.288;28.624;2023-04-25T04:19:37;98223.45;;;12.66;58.03
60337;BME280;46978;50.288;28.624;2023-04-25T04:20:39;98225.05;;;12.68;58.59
60337;BME280;46978;50.288;28.624;2023-04-25T04:21:40;98224.92;;;12.71;58.51
60337;BME280;46978;50.288;28.624;2023-04-25T04:22:42;98217.98;;;12.72;58.17
60337;BME280;46978;50.288;28.624;2023-04-25T04:23:44;98213.61;;;12.72;58.27
60337;BME280;46978;50.288;28.624;2023-04-25T04:24:45;98223.25;;;12.70;58.11
60337;BME280;46978;50.288;28.624;2023-04-25T04:25:47;98217.18;;;12.70;58.37
60337;BME280;46978;50.288;28.624;2023-04-25T04:26:49;98216.20;;;12.72;58.19
60337;BME280;46978;50.288;28.624;2023-04-25T04:27:51;98218.53;;;12.79;58.69
60337;BME280;46978;50.288;28.624;2023-04-25T04:28:53;98225.16;;;12.86;58.42
60337;BME280;46978;50.288;28.624;2023-04-25T04:29:54;98217.28;;;12.87;57.78
60337;BME280;46978;50.288;28.624;2023-04-25T04:30:56;98218.88;;;12.90;58.07
60337;BME280;46978;50.288;28.624;2023-04-25T04:31:58;98223.11;;;12.93;57.86
60337;BME280;46978;50.288;28.624;2023-04-25T04:32:59;98213.38;;;12.96;57.86
60337;BME280;46978;50.288;28.624;2023-04-25T04:34:01;98212.34;;;13.00;57.78
60337;BME280;46978;50.288;28.624;2023-04-25T04:35:03;98205.36;;;13.01;57.67
60337;BME280;46978;50.288;28.624;2023-04-25T04:36:06;98208.91;;;13.00;57.15
60337;BME280;46978;50.288;28.624;2023-04-25T04:37:08;98212.34;;;13.00;57.56
60337;BME280;46978;50.288;28.624;2023-04-25T04:38:09;98212.34;;;13.00;57.46
60337;BME280;46978;50.288;28.624;2023-04-25T04:39:12;98214.94;;;13.00;57.33
60337;BME280;46978;50.288;28.624;2023-04-25T04:40:14;98202.97;;;12.96;57.52
60337;BME280;46978;50.288;28.624;2023-04-25T04:41:16;98210.16;;;12.91;57.43
60337;BME280;46978;50.288;28.624;2023-04-25T04:42:18;98209.47;;;12.87;57.82
60337;BME280;46978;50.288;28.624;2023-04-25T04:43:19;98207.77;;;12.86;57.95
60337;BME280;46978;50.288;28.624;2023-04-25T04:44:21;98207.98;;;12.82;57.99
60337;BME280;46978;50.288;28.624;2023-04-25T04:45:23;98215.09;;;12.78;58.34
60337;BME280;46978;50.288;28.624;2023-04-25T04:46:25;98208.33;;;12.74;58.58
60337;BME280;46978;50.288;28.624;2023-04-25T04:47:27;98206.84;;;12.68;58.68
60337;BME280;46978;50.288;28.624;2023-04-25T04:48:29;98214.78;;;12.65;58.72
60337;BME280;46978;50.288;28.624;2023-04-25T04:49:30;98214.92;;;12.62;59.00
60337;BME280;46978;50.288;28.624;2023-04-25T04:50:32;98209.16;;;12.55;59.23
60337;BME280;46978;50.288;28.624;2023-04-25T04:51:34;98206.70;;;12.52;59.34
60337;BME280;46978;50.288;28.624;2023-04-25T04:52:36;98207.80;;;12.47;59.66
60337;BME280;46978;50.288;28.624;2023-04-25T04:53:38;98205.61;;;12.37;59.85
60337;BME280;46978;50.288;28.624;2023-04-25T04:54:40;98205.81;;;12.33;60.62
60337;BME280;46978;50.288;28.624;2023-04-25T04:55:41;98204.47;;;12.24;60.51
60337;BME280;46978;50.288;28.624;2023-04-25T04:56:43;98203.04;;;12.17;60.78
60337;BME280;46978;50.288;28.624;2023-04-25T04:57:45;98204.94;;;12.13;61.19
60337;BME280;46978;50.288;28.624;2023-04-25T04:58:46;98210.97;;;12.14;61.39
60337;BME280;46978;50.288;28.624;2023-04-25T04:59:48;98211.88;;;12.13;61.69
60337;BME280;46978;50.288;28.624;2023-04-25T05:00:50;98209.34;;;12.11;61.29
60337;BME280;46978;50.288;28.624;2023-04-25T05:01:52;98215.47;;;12.10;61.27
60337;BME280;46978;50.288;28.624;2023-04-25T05:02:54;98206.94;;;12.07;61.44
60337;BME280;46978;50.288;28.624;2023-04-25T05:03:56;98210.47;;;12.06;61.59
60337;BME280;46978;50.288;28.624;2023-04-25T05:04:58;98207.94;;;12.04;61.34
60337;BME280;46978;50.288;28.624;2023-04-25T05:06:00;98204.34;;;12.07;61.52
60337;BME280;46978;50.288;28.624;2023-04-25T05:07:02;98207.87;;;12.06;61.55
60337;BME280;46978;50.288;28.624;2023-04-25T05:08:04;98212.14;;;12.07;61.47
60337;BME280;46978;50.288;28.624;2023-04-25T05:09:05;98200.84;;;12.08;61.50
60337;BME280;46978;50.288;28.624;2023-04-25T05:10:09;98205.84;;;12.12;61.44
60337;BME280;46978;50.288;28.624;2023-04-25T05:11:11;98204.14;;;12.11;61.07
60337;BME280;46978;50.288;28.624;2023-04-25T05:12:13;98216.17;;;12.14;61.05
60337;BME280;46978;50.288;28.624;2023-04-25T05:13:14;98211.74;;;12.16;61.08
60337;BME280;46978;50.288;28.624;2023-04-25T05:14:16;98208.23;;;12.17;60.78
60337;BME280;46978;50.288;28.624;2023-04-25T05:15:18;98211.55;;;12.20;61.13
60337;BME280;46978;50.288;28.624;2023-04-25T05:16:21;98209.55;;;12.27;61.26
60337;BME280;46978;50.288;28.624;2023-04-25T05:17:22;98208.41;;;12.33;61.29
60337;BME280;46978;50.288;28.624;2023-04-25T05:18:24;98202.94;;;12.39;61.05
60337;BME280;46978;50.288;28.624;2023-04-25T05:19:26;98200.93;;;12.46;60.98
60337;BME280;46978;50.288;28.624;2023-04-25T05:20:28;98207.59;;;12.51;60.63
60337;BME280;46978;50.288;28.624;2023-04-25T05:21:29;98199.66;;;12.54;60.32
60337;BME280;46978;50.288;28.624;2023-04-25T05:22:31;98208.12;;;12.60;59.98
60337;BME280;46978;50.288;28.624;2023-04-25T05:23:33;98208.05;;;12.61;59.96
60337;BME280;46978;50.288;28.624;2023-04-25T05:24:35;98205.31;;;12.64;60.11
60337;BME280;46978;50.288;28.624;2023-04-25T05:25:37;98200.66;;;12.71;60.33
60337;BME280;46978;50.288;28.624;2023-04-25T05:26:38;98203.05;;;12.76;59.66
60337;BME280;46978;50.288;28.624;2023-04-25T05:27:40;98197.78;;;12.77;59.91
60337;BME280;46978;50.288;28.624;2023-04-25T05:28:43;98201.00;;;12.82;59.74
60337;BME280;46978;50.288;28.624;2023-04-25T05:29:45;98205.02;;;12.89;59.64